Time;durP1;ratioP1;P1;durP2;ratioP2;P2;SDS_P1;SDS_P2;PMS_P1;PMS_P2;Temp;Humidity;BMP_temperature;BMP_pressure;BME280_temperature;BME280_humidity;BME280_pressure;Samples;Min_cycle;Max_cycle;Signal;HPM_P1;HPM_P2
2021/11/12 00:02:20;;;;;;;;;;;5.20;99.90;;;;;;5007501;28;19930;-75
2021/11/12 00:13:09;;;;;;;;;;;5.10;99.90;;;;;;5069156;28;20005;-75
2021/11/12 00:15:42;;;;;;;;;;;5.10;99.90;;;;;;5068398;28;19925;-76
2021/11/12 00:18:09;;;;;;;;;;;4.90;99.90;;;;;;5067702;28;19943;-76
2021/11/12 00:20:36;;;;;;;;;;;4.90;99.90;;;;;;5068959;28;20018;-75
2021/11/12 00:23:04;;;;;;;;;;;4.90;99.90;;;;;;5069516;28;19960;-75
2021/11/12 00:25:31;;;;;;;;;;;4.90;99.90;;;;;;5066687;28;20015;-75
2021/11/12 00:27:58;;;;;;;;;;;4.80;99.90;;;;;;5066787;28;19924;-75
2021/11/12 00:30:34;;;;;;;;;;;4.80;99.90;;;;;;5067285;28;19932;-76
2021/11/12 00:33:08;;;;;;;;;;;4.80;99.90;;;;;;5069085;28;19924;-76
2021/11/12 00:35:40;;;;;;;;;;;4.70;99.90;;;;;;5065366;28;19947;-76
2021/11/12 00:38:11;;;;;;;;;;;4.70;99.90;;;;;;5063966;28;19929;-75
2021/11/12 00:40:47;;;;;;;;;;;4.70;99.90;;;;;;5068782;28;20336;-75
2021/11/12 00:43:29;;;;;;;;;;;4.60;99.90;;;;;;5067012;28;19928;-75
2021/11/12 00:46:08;;;;;;;;;;;4.60;99.90;;;;;;5069230;28;20287;-75
2021/11/12 00:48:37;;;;;;;;;;;4.40;99.90;;;;;;5066326;28;19929;-75
2021/11/12 00:51:13;;;;;;;;;;;4.40;99.90;;;;;;5064577;28;20393;-75
2021/11/12 00:53:53;;;;;;;;;;;4.40;99.90;;;;;;5067369;28;19970;-75
2021/11/12 00:56:22;;;;;;;;;;;4.40;99.90;;;;;;5066560;28;19924;-75
2021/11/12 00:58:49;;;;;;;;;;;4.40;99.90;;;;;;5058514;28;19924;-77
2021/11/12 01:01:16;;;;;;;;;;;4.40;99.90;;;;;;5060629;28;19963;-75
2021/11/12 01:03:43;;;;;;;;;;;4.40;99.90;;;;;;5069503;28;19929;-75
2021/11/12 01:06:13;;;;;;;;;;;4.30;99.90;;;;;;5067128;28;20010;-75
2021/11/12 01:08:42;;;;;;;;;;;4.30;99.90;;;;;;5066127;28;20014;-76
2021/11/12 01:11:10;;;;;;;;;;;4.20;99.90;;;;;;5070052;28;19925;-76
2021/11/12 01:13:37;;;;;;;;;;;4.10;99.90;;;;;;5066350;28;19929;-74
2021/11/12 01:16:04;;;;;;;;;;;4.10;99.90;;;;;;5063090;28;19924;-74
2021/11/12 01:18:34;;;;;;;;;;;4.00;99.90;;;;;;5065749;28;19994;-75
2021/11/12 01:21:00;;;;;;;;;;;4.00;99.90;;;;;;5066033;28;19956;-76
2021/11/12 01:23:27;;;;;;;;;;;4.10;99.90;;;;;;5068922;28;19931;-75
2021/11/12 01:25:55;;;;;;;;;;;4.10;99.90;;;;;;5068432;28;20360;-76
2021/11/12 01:28:22;;;;;;;;;;;4.10;99.90;;;;;;5066499;28;19925;-75
2021/11/12 01:30:49;;;;;;;;;;;4.10;99.90;;;;;;5068715;28;20332;-75
2021/11/12 01:33:15;;;;;;;;;;;4.00;99.90;;;;;;5068320;28;20032;-74
2021/11/12 01:35:43;;;;;;;;;;;4.00;99.90;;;;;;5064697;28;20015;-74
2021/11/12 01:38:09;;;;;;;;;;;3.90;99.90;;;;;;5070455;28;20012;-75
2021/11/12 01:40:36;;;;;;;;;;;3.90;99.90;;;;;;5066812;28;19952;-73
2021/11/12 01:43:07;;;;;;;;;;;3.80;99.90;;;;;;5068987;28;19974;-74
2021/11/12 01:48:47;;;;;;;;;;;3.60;99.90;;;;;;5010435;28;19937;-73
2021/11/12 01:51:22;;;;;;;;;;;3.40;99.90;;;;;;5068533;28;20426;-74
2021/11/12 01:53:53;;;;;;;;;;;3.30;99.90;;;;;;5068629;28;20008;-74
2021/11/12 01:56:29;;;;;;;;;;;3.20;99.90;;;;;;5064213;28;19970;-74
2021/11/12 01:59:13;;;;;;;;;;;3.20;99.90;;;;;;5064477;28;19925;-73
2021/11/12 02:01:42;;;;;;;;;;;3.20;99.90;;;;;;5060919;28;20291;-75
2021/11/12 02:04:11;;;;;;;;;;;3.20;99.90;;;;;;5067561;28;19924;-74
2021/11/12 02:06:38;;;;;;;;;;;3.20;99.90;;;;;;5069802;28;19924;-74
2021/11/12 02:09:10;;;;;;;;;;;3.20;99.90;;;;;;5059185;28;20015;-74
2021/11/12 02:11:37;;;;;;;;;;;3.10;99.90;;;;;;5068443;28;19924;-74
2021/11/12 02:14:06;;;;;;;;;;;3.10;99.90;;;;;;5066993;28;20337;-74
2021/11/12 02:16:37;;;;;;;;;;;3.00;99.90;;;;;;5070563;28;19925;-74
2021/11/12 02:19:04;;;;;;;;;;;3.10;99.90;;;;;;5069451;28;19978;-74
2021/11/12 02:21:35;;;;;;;;;;;3.10;99.90;;;;;;5071423;28;19966;-74
2021/11/12 02:24:05;;;;;;;;;;;3.10;99.90;;;;;;5066935;28;20011;-75
2021/11/12 02:26:34;;;;;;;;;;;3.10;99.90;;;;;;5066327;28;20280;-74
2021/11/12 02:29:02;;;;;;;;;;;3.00;99.90;;;;;;5066677;28;19932;-74
2021/11/12 02:31:29;;;;;;;;;;;3.00;99.90;;;;;;5067281;28;20366;-74
2021/11/12 02:33:57;;;;;;;;;;;2.90;99.90;;;;;;5067623;28;20011;-74
2021/11/12 02:36:24;;;;;;;;;;;2.90;99.90;;;;;;5063007;28;20018;-75
2021/11/12 02:38:53;;;;;;;;;;;2.90;99.90;;;;;;5068988;28;20008;-74
2021/11/12 02:41:20;;;;;;;;;;;2.90;99.90;;;;;;5071575;28;20446;-75
2021/11/12 02:43:48;;;;;;;;;;;2.90;99.90;;;;;;5069910;28;20471;-75
2021/11/12 02:46:15;;;;;;;;;;;2.90;99.90;;;;;;5058136;28;19980;-75
2021/11/12 02:48:42;;;;;;;;;;;2.80;99.90;;;;;;5069715;28;19928;-75
2021/11/12 02:51:11;;;;;;;;;;;2.80;99.90;;;;;;5064458;28;19924;-75
2021/11/12 02:53:38;;;;;;;;;;;2.80;99.90;;;;;;5068378;28;19929;-76
2021/11/12 02:56:10;;;;;;;;;;;2.80;99.90;;;;;;5054163;28;20384;-75
2021/11/12 02:58:38;;;;;;;;;;;2.70;99.90;;;;;;5065754;28;19931;-75
2021/11/12 03:01:05;;;;;;;;;;;2.60;99.90;;;;;;5064154;28;19939;-75
2021/11/12 03:03:31;;;;;;;;;;;2.60;99.90;;;;;;5066713;28;19979;-74
2021/11/12 03:05:59;;;;;;;;;;;2.50;99.90;;;;;;5074165;28;20512;-75
2021/11/12 03:08:27;;;;;;;;;;;2.50;99.90;;;;;;5071868;28;19925;-75
2021/11/12 03:10:55;;;;;;;;;;;2.50;99.90;;;;;;5068757;28;19932;-76
2021/11/12 03:13:23;;;;;;;;;;;2.50;99.90;;;;;;5071075;28;19924;-75
2021/11/12 03:15:50;;;;;;;;;;;2.60;99.90;;;;;;5072847;28;20031;-75
2021/11/12 03:18:17;;;;;;;;;;;2.60;99.90;;;;;;5070537;28;20367;-75
2021/11/12 03:20:44;;;;;;;;;;;2.50;99.90;;;;;;5071325;28;20352;-75
2021/11/12 03:23:15;;;;;;;;;;;2.50;99.90;;;;;;5074685;28;19947;-75
2021/11/12 03:25:47;;;;;;;;;;;2.50;99.90;;;;;;5065861;28;19924;-75
2021/11/12 03:28:20;;;;;;;;;;;2.50;99.90;;;;;;5077261;28;20015;-75
2021/11/12 04:04:27;;;;;;;;;;;2.40;99.90;;;;;;5024309;28;20306;-76
2021/11/12 04:06:59;;;;;;;;;;;2.30;99.90;;;;;;5074418;28;19966;-76
2021/11/12 04:17:51;;;;;;;;;;;2.10;99.90;;;;;;5022152;28;19932;-75
2021/11/12 05:10:12;;;;;;;;;;;2.00;99.90;;;;;;5068178;28;19977;-74
2021/11/12 05:12:49;;;;;;;;;;;2.00;99.90;;;;;;5065131;28;19951;-73
2021/11/12 05:34:54;;;;;;;;;;;2.70;99.90;;;;;;5069260;28;19931;-74
2021/11/12 05:45:56;;;;;;;;;;;2.80;99.90;;;;;;5066450;28;19931;-74
2021/11/12 05:51:22;;;;;;;;;;;2.80;99.90;;;;;;5066446;28;19940;-74
2021/11/12 05:56:33;;;;;;;;;;;3.00;99.90;;;;;;5070443;28;20574;-75
2021/11/12 05:59:01;;;;;;;;;;;3.10;99.90;;;;;;5070048;28;19928;-75
2021/11/12 06:01:28;;;;;;;;;;;3.10;99.90;;;;;;5059695;28;19931;-74
2021/11/12 06:03:56;;;;;;;;;;;3.10;99.90;;;;;;5064677;28;20015;-75
2021/11/12 06:06:23;;;;;;;;;;;3.10;99.90;;;;;;5065245;28;19925;-74
2021/11/12 06:08:49;;;;;;;;;;;3.10;99.90;;;;;;5056238;28;19924;-74
2021/11/12 06:11:16;;;;;;;;;;;2.90;99.90;;;;;;5066634;28;20403;-74
2021/11/12 06:13:43;;;;;;;;;;;2.90;99.90;;;;;;5069631;28;20403;-74
2021/11/12 06:16:11;;;;;;;;;;;2.90;99.90;;;;;;5073903;28;19975;-75
2021/11/12 06:18:38;;;;;;;;;;;2.90;99.90;;;;;;5072718;28;20559;-74
2021/11/12 06:21:05;;;;;;;;;;;2.90;99.90;;;;;;5067044;28;19931;-74
2021/11/12 06:23:31;;;;;;;;;;;2.90;99.90;;;;;;5071168;28;19932;-74
2021/11/12 06:25:58;;;;;;;;;;;3.00;99.90;;;;;;5063379;28;20533;-73
2021/11/12 06:28:25;;;;;;;;;;;3.00;99.90;;;;;;5073778;28;19931;-74
2021/11/12 06:30:51;;;;;;;;;;;3.00;99.90;;;;;;5075205;28;20015;-73
2021/11/12 06:33:20;;;;;;;;;;;3.00;99.90;;;;;;5071849;28;19925;-73
2021/11/12 06:35:47;;;;;;;;;;;3.00;99.90;;;;;;5066131;28;19977;-74
2021/11/12 06:38:16;;;;;;;;;;;2.90;99.90;;;;;;5070234;28;19924;-75
2021/11/12 06:40:42;;;;;;;;;;;2.90;99.90;;;;;;5072200;28;20029;-76
2021/11/12 06:43:21;;;;;;;;;;;2.90;99.90;;;;;;5075377;28;19925;-74
2021/11/12 06:51:18;;;;;;;;;;;2.70;99.90;;;;;;5074518;28;19939;-74
2021/11/12 06:53:44;;;;;;;;;;;2.70;99.90;;;;;;5072422;28;19932;-74
2021/11/12 06:56:11;;;;;;;;;;;2.80;99.90;;;;;;5077374;28;20544;-78
2021/11/12 06:58:40;;;;;;;;;;;2.90;99.90;;;;;;5076987;28;20697;-74
2021/11/12 07:01:07;;;;;;;;;;;2.90;99.90;;;;;;5070577;28;19925;-74
2021/11/12 07:03:35;;;;;;;;;;;2.90;99.90;;;;;;5070615;28;19933;-75
2021/11/12 07:06:02;;;;;;;;;;;2.90;99.90;;;;;;5073552;28;19935;-74
2021/11/12 07:08:29;;;;;;;;;;;3.00;99.90;;;;;;5066591;28;19939;-74
2021/11/12 07:10:57;;;;;;;;;;;3.00;99.90;;;;;;5070553;28;20644;-73
2021/11/12 07:13:25;;;;;;;;;;;3.00;99.90;;;;;;5070652;28;19925;-73
2021/11/12 07:15:52;;;;;;;;;;;3.00;99.90;;;;;;5071773;28;20011;-73
2021/11/12 07:18:20;;;;;;;;;;;3.00;99.90;;;;;;5069085;28;20339;-73
2021/11/12 07:20:48;;;;;;;;;;;3.00;99.90;;;;;;5071219;28;19924;-74
2021/11/12 07:23:15;;;;;;;;;;;3.10;99.90;;;;;;5069837;28;19936;-73
2021/11/12 07:25:42;;;;;;;;;;;3.30;99.90;;;;;;5066557;28;19932;-74
2021/11/12 07:28:10;;;;;;;;;;;3.30;99.90;;;;;;5067579;28;20386;-74
2021/11/12 07:30:41;;;;;;;;;;;3.30;99.90;;;;;;5068442;28;20391;-74
2021/11/12 07:33:08;;;;;;;;;;;3.30;99.90;;;;;;5069969;28;19925;-75
2021/11/12 07:35:38;;;;;;;;;;;3.40;99.90;;;;;;5064943;28;20015;-73
2021/11/12 07:38:12;;;;;;;;;;;3.40;99.90;;;;;;5070314;28;19924;-73
2021/11/12 07:40:59;;;;;;;;;;;3.30;99.90;;;;;;5067901;28;20378;-75
2021/11/12 07:46:14;;;;;;;;;;;3.30;99.90;;;;;;5068373;28;19932;-74
2021/11/12 07:48:41;;;;;;;;;;;3.30;99.90;;;;;;5068734;28;19932;-74
2021/11/12 07:51:08;;;;;;;;;;;3.40;99.90;;;;;;5065666;28;19932;-75
2021/11/12 07:53:36;;;;;;;;;;;3.40;99.90;;;;;;5065561;28;20028;-74
2021/11/12 07:56:05;;;;;;;;;;;3.50;99.90;;;;;;5066616;28;20023;-74
2021/11/12 07:58:32;;;;;;;;;;;3.60;99.90;;;;;;5066159;28;19928;-74
2021/11/12 08:00:58;;;;;;;;;;;3.70;99.90;;;;;;5067285;28;19970;-74
2021/11/12 08:03:26;;;;;;;;;;;3.80;99.90;;;;;;5064554;28;19925;-74
2021/11/12 08:05:53;;;;;;;;;;;3.90;99.90;;;;;;5067346;28;20031;-74
2021/11/12 08:08:22;;;;;;;;;;;4.40;99.90;;;;;;5066060;28;19954;-74
2021/11/12 08:10:56;;;;;;;;;;;6.20;99.90;;;;;;5067029;28;20371;-74
2021/11/12 08:13:32;;;;;;;;;;;7.40;99.90;;;;;;5062893;28;19931;-73
2021/11/12 08:16:10;;;;;;;;;;;7.30;99.90;;;;;;5068026;28;19928;-74
2021/11/12 08:18:47;;;;;;;;;;;8.20;99.90;;;;;;5062599;28;19971;-73
2021/11/12 08:21:16;;;;;;;;;;;8.60;99.90;;;;;;5069508;28;19925;-73
2021/11/12 08:23:53;;;;;;;;;;;9.00;99.90;;;;;;5069535;28;20031;-74
2021/11/12 08:26:31;;;;;;;;;;;9.50;99.90;;;;;;5070519;28;19925;-73
2021/11/12 08:31:53;;;;;;;;;;;10.30;93.90;;;;;;5064256;28;22072;-73
2021/11/12 08:34:23;;;;;;;;;;;11.00;91.60;;;;;;5067232;28;19978;-74
2021/11/12 08:36:56;;;;;;;;;;;11.10;87.00;;;;;;5065330;28;19931;-74
2021/11/12 08:39:37;;;;;;;;;;;10.70;85.90;;;;;;5060049;28;19932;-73
2021/11/12 08:42:08;;;;;;;;;;;10.60;85.90;;;;;;5060231;28;19977;-73
2021/11/12 08:44:38;;;;;;;;;;;10.40;85.30;;;;;;5062035;28;19952;-74
2021/11/12 08:47:09;;;;;;;;;;;10.80;85.90;;;;;;5060954;28;19925;-74
2021/11/12 08:49:38;;;;;;;;;;;11.30;84.60;;;;;;5060537;28;21656;-74
2021/11/12 08:52:06;;;;;;;;;;;11.80;81.40;;;;;;5063306;28;19924;-73
2021/11/12 08:54:35;;;;;;;;;;;11.80;79.30;;;;;;5060733;28;19992;-73
2021/11/12 08:57:05;;;;;;;;;;;11.70;77.60;;;;;;5059789;28;19936;-73
2021/11/12 08:59:34;;;;;;;;;;;11.50;77.70;;;;;;5068442;28;19928;-74
2021/11/12 09:02:01;;;;;;;;;;;11.60;78.50;;;;;;5062236;28;20012;-73
2021/11/12 09:04:28;;;;;;;;;;;11.70;76.10;;;;;;5062651;28;20006;-74
2021/11/12 09:06:57;;;;;;;;;;;11.50;76.70;;;;;;5065988;28;19933;-74
2021/11/12 09:09:24;;;;;;;;;;;11.20;76.20;;;;;;5066063;28;19925;-74
2021/11/12 09:11:51;;;;;;;;;;;11.10;77.70;;;;;;5063658;28;19932;-74
2021/11/12 09:14:20;;;;;;;;;;;10.50;77.30;;;;;;5064267;28;19931;-73
2021/11/12 09:16:49;;;;;;;;;;;9.20;82.00;;;;;;5064804;28;19929;-73
2021/11/12 09:19:15;;;;;;;;;;;8.20;86.80;;;;;;5066321;28;20015;-74
2021/11/12 09:21:42;;;;;;;;;;;7.50;91.80;;;;;;5060560;28;20011;-73
2021/11/12 09:24:09;;;;;;;;;;;7.00;96.40;;;;;;5064348;28;19931;-73
2021/11/12 09:26:36;;;;;;;;;;;6.70;99.90;;;;;;5062752;28;19933;-74
2021/11/12 09:29:03;;;;;;;;;;;6.70;99.90;;;;;;5064880;28;20259;-72
2021/11/12 09:31:31;;;;;;;;;;;6.60;99.90;;;;;;5061703;28;19924;-74
2021/11/12 09:33:59;;;;;;;;;;;6.60;99.90;;;;;;5062184;28;19932;-73
2021/11/12 09:36:26;;;;;;;;;;;6.60;99.90;;;;;;5064456;28;19977;-74
2021/11/12 09:38:53;;;;;;;;;;;6.60;99.90;;;;;;5062830;28;19933;-74
2021/11/12 09:41:20;;;;;;;;;;;6.60;99.90;;;;;;5069588;28;19924;-73
2021/11/12 09:43:47;;;;;;;;;;;6.80;99.90;;;;;;5064643;28;19924;-74
2021/11/12 09:46:14;;;;;;;;;;;6.90;99.90;;;;;;5068103;28;20293;-75
2021/11/12 09:48:42;;;;;;;;;;;6.90;99.90;;;;;;5057654;28;19929;-74
2021/11/12 09:51:10;;;;;;;;;;;7.10;99.90;;;;;;5069079;28;19958;-74
2021/11/12 09:53:37;;;;;;;;;;;7.10;99.90;;;;;;5066296;28;20285;-74
2021/11/12 09:56:07;;;;;;;;;;;7.10;99.90;;;;;;5065897;28;20032;-74
2021/11/12 09:58:34;;;;;;;;;;;7.20;99.90;;;;;;5067620;28;20057;-73
2021/11/12 10:01:01;;;;;;;;;;;7.30;99.90;;;;;;5068400;28;20463;-73
2021/11/12 10:03:32;;;;;;;;;;;7.50;99.90;;;;;;5061353;28;19930;-74
2021/11/12 10:06:00;;;;;;;;;;;7.60;99.90;;;;;;5066296;28;19924;-74
2021/11/12 10:08:30;;;;;;;;;;;7.70;99.90;;;;;;5064256;28;19982;-73
2021/11/12 10:10:59;;;;;;;;;;;7.70;99.90;;;;;;5066089;28;19935;-74
2021/11/12 10:13:29;;;;;;;;;;;7.80;99.90;;;;;;5065144;28;19936;-73
2021/11/12 10:16:10;;;;;;;;;;;7.80;99.90;;;;;;5071084;28;19924;-74
2021/11/12 10:18:37;;;;;;;;;;;7.80;99.90;;;;;;5066472;28;19932;-74
2021/11/12 10:21:03;;;;;;;;;;;8.00;99.90;;;;;;5066024;28;19931;-75
2021/11/12 10:23:35;;;;;;;;;;;8.10;99.90;;;;;;5069055;28;20598;-74
2021/11/12 10:26:04;;;;;;;;;;;8.30;99.90;;;;;;5064455;28;19936;-73
2021/11/12 10:28:38;;;;;;;;;;;8.40;99.90;;;;;;5065250;28;20114;-74
2021/11/12 10:31:12;;;;;;;;;;;8.50;99.90;;;;;;5069491;28;19932;-75
2021/11/12 10:33:39;;;;;;;;;;;8.40;99.90;;;;;;5067633;28;19933;-75
2021/11/12 10:36:06;;;;;;;;;;;8.60;99.90;;;;;;5067289;28;19924;-74
2021/11/12 10:38:40;;;;;;;;;;;8.60;99.90;;;;;;5065895;28;20399;-73
2021/11/12 10:41:14;;;;;;;;;;;8.60;99.90;;;;;;5063703;28;19989;-74
2021/11/12 10:43:41;;;;;;;;;;;8.60;99.90;;;;;;5067028;28;20009;-74
2021/11/12 10:46:07;;;;;;;;;;;8.60;99.90;;;;;;5071527;28;19971;-74
2021/11/12 10:48:34;;;;;;;;;;;8.70;99.90;;;;;;5068081;28;19933;-74
2021/11/12 10:51:13;;;;;;;;;;;8.80;99.90;;;;;;5067573;28;19932;-74
2021/11/12 10:53:48;;;;;;;;;;;8.90;99.90;;;;;;5066133;28;19987;-74
2021/11/12 10:56:15;;;;;;;;;;;9.00;99.90;;;;;;5070760;28;19993;-74
2021/11/12 10:58:57;;;;;;;;;;;9.10;99.90;;;;;;5069416;28;19956;-76
2021/11/12 11:01:30;;;;;;;;;;;9.10;99.90;;;;;;5068456;28;19924;-74
2021/11/12 11:04:13;;;;;;;;;;;9.20;99.90;;;;;;5070397;28;20367;-74
2021/11/12 11:06:40;;;;;;;;;;;9.30;99.90;;;;;;5068768;28;19939;-74
2021/11/12 11:09:08;;;;;;;;;;;9.40;99.90;;;;;;5066359;28;19933;-74
2021/11/12 11:11:38;;;;;;;;;;;9.50;99.90;;;;;;5066810;28;19925;-74
2021/11/12 11:14:05;;;;;;;;;;;9.60;99.90;;;;;;5064800;28;19925;-73
2021/11/12 11:16:36;;;;;;;;;;;9.60;99.90;;;;;;5067917;28;20015;-73
2021/11/12 11:19:02;;;;;;;;;;;9.60;99.90;;;;;;5068018;28;20046;-73
2021/11/12 11:21:30;;;;;;;;;;;9.70;99.90;;;;;;5065329;28;19925;-74
2021/11/12 11:23:59;;;;;;;;;;;9.90;99.90;;;;;;5066388;28;19929;-74
2021/11/12 11:26:28;;;;;;;;;;;9.90;99.90;;;;;;5065788;28;20487;-73
2021/11/12 11:28:55;;;;;;;;;;;10.00;99.90;;;;;;5064836;28;20465;-73
2021/11/12 11:31:22;;;;;;;;;;;10.00;99.90;;;;;;5063753;28;20580;-74
2021/11/12 11:33:50;;;;;;;;;;;10.10;99.60;;;;;;5061271;28;19932;-74
2021/11/12 11:36:18;;;;;;;;;;;10.00;99.80;;;;;;5065672;28;19924;-74
2021/11/12 11:38:45;;;;;;;;;;;10.10;99.70;;;;;;5063426;28;19928;-75
2021/11/12 11:41:13;;;;;;;;;;;10.10;98.80;;;;;;5065039;28;19977;-75
2021/11/12 11:43:41;;;;;;;;;;;10.00;98.90;;;;;;5064597;28;19932;-75
2021/11/12 11:46:10;;;;;;;;;;;10.20;99.00;;;;;;5056661;28;19928;-74
2021/11/12 11:48:37;;;;;;;;;;;10.30;98.50;;;;;;5068533;28;20398;-74
2021/11/12 11:51:05;;;;;;;;;;;10.50;98.60;;;;;;5066657;28;19932;-74
2021/11/12 11:53:33;;;;;;;;;;;10.60;98.20;;;;;;5060711;28;19939;-75
2021/11/12 11:56:12;;;;;;;;;;;10.50;97.50;;;;;;5063164;28;19932;-74
2021/11/12 11:58:41;;;;;;;;;;;10.50;97.10;;;;;;5069054;28;20753;-75
2021/11/12 12:01:33;;;;;;;;;;;10.70;96.70;;;;;;5070024;28;20345;-74
2021/11/12 12:04:30;;;;;;;;;;;10.80;96.10;;;;;;5062386;28;20426;-75
2021/11/12 12:07:27;;;;;;;;;;;10.90;95.50;;;;;;5067049;28;20382;-74
2021/11/12 12:09:59;;;;;;;;;;;11.10;94.10;;;;;;5066497;28;20260;-74
2021/11/12 12:12:42;;;;;;;;;;;11.30;94.20;;;;;;5066420;28;20023;-73
2021/11/12 12:15:28;;;;;;;;;;;11.30;93.90;;;;;;5066927;28;19931;-74
2021/11/12 12:18:06;;;;;;;;;;;11.40;94.20;;;;;;5065962;28;19932;-75
2021/11/12 12:20:38;;;;;;;;;;;11.30;92.50;;;;;;5066364;28;19932;-75
2021/11/12 13:22:35;;;;;;;;;;;11.30;90.20;;;;;;5062769;28;19924;-74
2021/11/12 13:25:02;;;;;;;;;;;11.30;90.20;;;;;;5062337;28;19928;-75
2021/11/12 13:27:29;;;;;;;;;;;11.20;89.50;;;;;;5065288;28;20344;-75
2021/11/12 13:29:56;;;;;;;;;;;11.20;89.80;;;;;;5065001;28;19924;-76
2021/11/12 13:32:24;;;;;;;;;;;11.10;89.90;;;;;;5065273;28;19940;-76
2021/11/12 13:34:50;;;;;;;;;;;11.20;89.70;;;;;;5054639;28;19932;-74
2021/11/12 13:37:18;;;;;;;;;;;11.20;90.00;;;;;;5059642;28;19948;-76
2021/11/12 13:39:46;;;;;;;;;;;11.30;90.10;;;;;;5065019;28;19924;-76
2021/11/12 13:42:13;;;;;;;;;;;11.30;89.60;;;;;;5063275;28;20447;-74
2021/11/12 13:44:42;;;;;;;;;;;11.40;88.70;;;;;;5058582;28;19933;-75
2021/11/12 13:47:11;;;;;;;;;;;11.30;87.20;;;;;;5066679;28;19982;-75
2021/11/12 13:49:40;;;;;;;;;;;11.40;85.80;;;;;;5063942;28;20607;-73
2021/11/12 13:52:08;;;;;;;;;;;11.30;85.90;;;;;;5066447;28;19931;-75
2021/11/12 13:54:39;;;;;;;;;;;11.40;85.40;;;;;;5064464;28;20470;-75
2021/11/12 13:57:09;;;;;;;;;;;11.60;83.60;;;;;;5061168;28;19940;-74
2021/11/12 13:59:36;;;;;;;;;;;11.60;81.70;;;;;;5062027;28;20337;-74
2021/11/12 14:02:03;;;;;;;;;;;11.60;81.90;;;;;;5059441;28;19979;-75
2021/11/12 14:04:32;;;;;;;;;;;11.60;81.40;;;;;;5061045;28;20357;-75
2021/11/12 14:07:00;;;;;;;;;;;11.50;79.50;;;;;;5063641;28;19978;-75
2021/11/12 14:09:33;;;;;;;;;;;11.50;80.10;;;;;;5063741;28;19931;-74
2021/11/12 14:12:08;;;;;;;;;;;11.40;80.20;;;;;;5063595;28;20017;-75
2021/11/12 14:14:35;;;;;;;;;;;11.40;80.80;;;;;;5064513;28;19955;-74
2021/11/12 14:17:25;;;;;;;;;;;11.30;80.30;;;;;;5066840;28;19936;-74
2021/11/12 14:20:07;;;;;;;;;;;11.20;80.10;;;;;;5065486;28;19924;-76
2021/11/12 14:22:44;;;;;;;;;;;11.20;80.40;;;;;;5060334;28;20050;-74
2021/11/12 14:25:21;;;;;;;;;;;11.00;81.00;;;;;;5067174;28;19928;-75
2021/11/12 14:27:53;;;;;;;;;;;11.00;81.80;;;;;;5067407;28;19955;-74
2021/11/12 14:30:40;;;;;;;;;;;11.00;82.60;;;;;;5066257;28;19932;-75
2021/11/12 14:33:17;;;;;;;;;;;10.90;82.70;;;;;;5063482;28;19947;-74
2021/11/12 14:35:52;;;;;;;;;;;10.90;82.50;;;;;;5067645;28;19931;-75
2021/11/12 14:38:26;;;;;;;;;;;10.90;82.30;;;;;;5066981;28;19948;-74
2021/11/12 14:43:50;;;;;;;;;;;10.80;81.20;;;;;;5063115;28;19932;-75
2021/11/12 14:46:22;;;;;;;;;;;10.70;81.60;;;;;;5065720;28;19955;-73
2021/11/12 14:49:05;;;;;;;;;;;10.70;81.10;;;;;;5063637;28;19935;-74
2021/11/12 14:51:36;;;;;;;;;;;10.60;81.00;;;;;;5066933;28;20279;-75
2021/11/12 14:54:08;;;;;;;;;;;10.50;81.20;;;;;;5065747;28;20619;-74
2021/11/12 14:56:35;;;;;;;;;;;10.50;81.30;;;;;;5071416;28;19936;-74
2021/11/12 14:59:04;;;;;;;;;;;10.50;81.00;;;;;;5067609;28;19928;-74
2021/11/12 15:01:32;;;;;;;;;;;10.50;80.70;;;;;;5065953;28;20015;-74
2021/11/12 15:03:59;;;;;;;;;;;10.40;81.00;;;;;;5064262;28;20001;-74
2021/11/12 15:06:26;;;;;;;;;;;10.40;80.90;;;;;;5069359;28;19931;-74
2021/11/12 15:08:56;;;;;;;;;;;10.40;81.20;;;;;;5067004;28;20379;-73
2021/11/12 15:11:26;;;;;;;;;;;10.40;81.60;;;;;;5062473;28;20437;-72
2021/11/12 15:14:02;;;;;;;;;;;10.40;82.40;;;;;;5062247;28;19928;-73
2021/11/12 15:16:29;;;;;;;;;;;10.30;80.40;;;;;;5064280;28;19970;-73
2021/11/12 15:18:57;;;;;;;;;;;10.30;80.10;;;;;;5065618;28;19925;-74
2021/11/12 15:21:27;;;;;;;;;;;10.30;79.70;;;;;;5066089;28;20329;-73
2021/11/12 15:24:16;;;;;;;;;;;10.40;79.30;;;;;;5062664;28;20021;-73
2021/11/12 15:27:08;;;;;;;;;;;10.40;79.00;;;;;;5065435;28;19929;-73
2021/11/12 15:29:37;;;;;;;;;;;10.40;78.80;;;;;;5063713;28;20307;-74
2021/11/12 15:32:12;;;;;;;;;;;10.40;78.90;;;;;;5066331;28;19938;-73
2021/11/12 15:34:41;;;;;;;;;;;10.40;79.20;;;;;;5064475;28;20023;-74
2021/11/12 15:37:11;;;;;;;;;;;10.30;78.60;;;;;;5064134;28;19931;-74
2021/11/12 15:39:53;;;;;;;;;;;10.30;79.60;;;;;;5062442;28;19947;-74
2021/11/12 15:45:11;;;;;;;;;;;10.20;79.00;;;;;;5033178;28;19928;-73
2021/11/12 15:47:42;;;;;;;;;;;10.10;79.10;;;;;;5069399;28;20333;-75
2021/11/12 15:50:14;;;;;;;;;;;10.00;79.70;;;;;;5068541;28;19925;-74
2021/11/12 15:55:32;;;;;;;;;;;9.90;81.40;;;;;;5066391;28;19931;-74
2021/11/12 16:00:56;;;;;;;;;;;9.70;82.40;;;;;;5065347;28;19935;-74
2021/11/12 16:03:52;;;;;;;;;;;9.60;83.40;;;;;;5067093;28;19928;-74
2021/11/12 16:09:18;;;;;;;;;;;9.40;84.30;;;;;;5040231;22;20023;-75
2021/11/12 16:12:11;;;;;;;;;;;9.40;84.90;;;;;;5067758;28;19978;-74
2021/11/12 16:14:45;;;;;;;;;;;9.30;85.30;;;;;;5067266;28;19925;-77
2021/11/12 16:19:59;;;;;;;;;;;9.20;86.40;;;;;;5065309;28;19924;-73
2021/11/12 16:22:53;;;;;;;;;;;9.10;86.90;;;;;;5071461;28;20256;-74
2021/11/12 16:25:19;;;;;;;;;;;9.10;87.10;;;;;;5065465;28;20387;-74
2021/11/12 16:27:47;;;;;;;;;;;9.00;87.50;;;;;;5070676;28;19927;-73
2021/11/12 16:30:18;;;;;;;;;;;8.90;87.80;;;;;;5065254;28;20013;-74
2021/11/12 16:32:47;;;;;;;;;;;8.90;88.20;;;;;;5059458;28;19942;-75
2021/11/12 16:35:18;;;;;;;;;;;8.90;88.60;;;;;;5055898;28;19993;-74
2021/11/12 16:37:47;;;;;;;;;;;8.80;88.90;;;;;;5054369;28;19932;-75
2021/11/12 16:40:18;;;;;;;;;;;8.80;89.30;;;;;;5053042;28;20339;-74
2021/11/12 16:45:49;;;;;;;;;;;8.90;89.80;;;;;;5044533;28;19932;-74
2021/11/12 16:48:23;;;;;;;;;;;8.90;89.70;;;;;;5053942;28;19928;-73
2021/11/12 16:50:57;;;;;;;;;;;9.00;89.80;;;;;;5054751;28;19935;-72
2021/11/12 16:58:59;;;;;;;;;;;9.10;89.30;;;;;;5054315;28;20020;-77
2021/11/12 17:01:50;;;;;;;;;;;9.10;89.40;;;;;;5054159;28;19932;-73
2021/11/12 17:04:24;;;;;;;;;;;9.20;89.20;;;;;;5053053;28;19929;-74
2021/11/12 17:06:52;;;;;;;;;;;9.20;89.20;;;;;;5066375;28;19936;-74
2021/11/12 17:09:32;;;;;;;;;;;9.20;89.40;;;;;;5064280;28;19929;-74
2021/11/12 17:12:15;;;;;;;;;;;9.20;89.70;;;;;;5060638;28;20407;-74
2021/11/12 17:14:53;;;;;;;;;;;9.20;89.40;;;;;;5065493;28;22638;-74
2021/11/12 17:20:15;;;;;;;;;;;9.20;89.20;;;;;;5064183;28;19930;-73
2021/11/12 17:45:12;;;;;;;;;;;9.20;90.00;;;;;;5068748;28;20294;-74
2021/11/12 17:47:42;;;;;;;;;;;9.20;90.00;;;;;;5069117;28;19924;-73
2021/11/12 17:50:14;;;;;;;;;;;9.20;90.20;;;;;;5066662;28;20391;-72
2021/11/12 18:03:48;;;;;;;;;;;9.20;91.10;;;;;;5072545;28;19931;-73
2021/11/12 18:06:18;;;;;;;;;;;9.10;91.40;;;;;;5070561;28;19924;-74
2021/11/12 21:47:08;;;;;;;;;;;9.30;99.90;;;;;;5048907;28;19924;-74
2021/11/12 21:49:35;;;;;;;;;;;9.30;99.90;;;;;;5054717;28;20063;-75
2021/11/12 21:52:03;;;;;;;;;;;9.40;99.90;;;;;;5055779;28;20181;-75
2021/11/12 21:54:30;;;;;;;;;;;9.40;99.90;;;;;;5053480;28;19925;-73
2021/11/12 21:56:59;;;;;;;;;;;9.40;99.90;;;;;;5054002;28;19929;-74
2021/11/12 21:59:26;;;;;;;;;;;9.40;99.90;;;;;;5056750;28;19993;-75
2021/11/12 22:01:53;;;;;;;;;;;9.40;99.90;;;;;;5053495;28;19939;-74
2021/11/12 22:04:21;;;;;;;;;;;9.40;99.90;;;;;;5053241;28;20411;-74
2021/11/12 22:06:48;;;;;;;;;;;9.40;99.90;;;;;;5051861;28;19928;-73
2021/11/12 22:09:16;;;;;;;;;;;9.40;99.90;;;;;;5052278;28;20353;-73
2021/11/12 22:11:43;;;;;;;;;;;9.30;99.90;;;;;;5052353;28;20516;-74
2021/11/12 22:14:10;;;;;;;;;;;9.30;99.90;;;;;;5053190;28;20353;-74
2021/11/12 22:16:36;;;;;;;;;;;9.40;99.90;;;;;;5052318;28;20025;-74
2021/11/12 22:19:03;;;;;;;;;;;9.40;99.90;;;;;;5054177;28;20021;-73
2021/11/12 22:21:30;;;;;;;;;;;9.40;99.90;;;;;;5069416;28;19924;-73
2021/11/12 22:23:57;;;;;;;;;;;9.40;99.90;;;;;;5071934;28;19924;-73
2021/11/12 22:26:25;;;;;;;;;;;9.40;99.90;;;;;;5064889;28;19924;-73
2021/11/12 22:28:52;;;;;;;;;;;9.50;99.90;;;;;;5069237;28;22191;-75
2021/11/12 22:31:20;;;;;;;;;;;9.50;99.90;;;;;;5071584;28;19931;-74
2021/11/12 22:33:46;;;;;;;;;;;9.60;99.90;;;;;;5069756;28;19930;-73
2021/11/12 22:36:14;;;;;;;;;;;9.60;99.90;;;;;;5069706;28;20363;-73
2021/11/12 22:38:41;;;;;;;;;;;9.60;99.90;;;;;;5071339;28;19924;-73
2021/11/12 22:41:08;;;;;;;;;;;9.70;99.90;;;;;;5072137;28;20019;-73
2021/11/12 22:43:36;;;;;;;;;;;9.70;99.90;;;;;;5072354;28;19931;-74
2021/11/12 22:46:03;;;;;;;;;;;9.50;99.90;;;;;;5071978;28;19932;-72
2021/11/12 22:48:30;;;;;;;;;;;9.40;99.90;;;;;;5072448;28;20397;-74
2021/11/12 22:50:57;;;;;;;;;;;9.30;99.90;;;;;;5070293;28;20010;-74
2021/11/12 22:53:23;;;;;;;;;;;9.20;99.90;;;;;;5071752;28;19924;-73